Time;durP1;ratioP1;P1;durP2;ratioP2;P2;SDS_P1;SDS_P2;PMS_P1;PMS_P2;Temp;Humidity;BMP_temperature;BMP_pressure;BME280_temperature;BME280_humidity;BME280_pressure;Samples;Min_cycle;Max_cycle;Signal;HPM_P1;HPM_P2
2021/12/23 00:02:25;;;;;;;0.80;0.80;;;-3.00;85.70;;;;;;5074275;28;20210;-69
2021/12/23 00:04:50;;;;;;;0.60;0.60;;;-2.90;85.50;;;;;;5074433;28;20524;-69
2021/12/23 00:07:16;;;;;;;0.70;0.70;;;-2.90;85.00;;;;;;5074315;28;20174;-68
2021/12/23 00:12:14;;;;;;;0.60;0.60;;;-2.80;84.10;;;;;;5074083;28;20652;-69
2021/12/23 00:14:40;;;;;;;0.50;0.50;;;-2.70;84.20;;;;;;5073926;28;20635;-68
2021/12/23 00:17:21;;;;;;;0.57;0.57;;;-2.70;84.60;;;;;;5073887;28;20250;-68
2021/12/23 00:25:30;;;;;;;0.65;0.65;;;-2.50;84.70;;;;;;5074018;28;20196;-69
2021/12/23 00:27:56;;;;;;;0.70;0.70;;;-2.40;84.70;;;;;;5073616;28;20170;-68
2021/12/23 00:30:22;;;;;;;0.40;0.40;;;-2.40;84.50;;;;;;5073811;28;20400;-69
2021/12/23 00:32:47;;;;;;;0.50;0.50;;;-2.30;84.60;;;;;;5073897;28;20420;-69
2021/12/23 00:35:13;;;;;;;0.50;0.50;;;-2.30;84.70;;;;;;5073667;28;20920;-69
2021/12/23 00:37:43;;;;;;;0.70;0.70;;;-2.20;85.30;;;;;;5073559;28;20169;-69
2021/12/23 00:40:11;;;;;;;0.70;0.70;;;-2.20;86.00;;;;;;5073478;28;20409;-69
2021/12/23 00:42:38;;;;;;;0.60;0.60;;;-2.10;85.70;;;;;;5073516;28;20589;-69
2021/12/23 00:45:05;;;;;;;0.40;0.40;;;-2.10;85.30;;;;;;5073496;28;20193;-69
2021/12/23 00:47:31;;;;;;;0.40;0.40;;;-2.00;85.10;;;;;;5073703;28;20185;-69
2021/12/23 00:49:57;;;;;;;0.50;0.50;;;-1.90;84.80;;;;;;5073515;28;20158;-68
2021/12/23 00:52:35;;;;;;;0.75;0.75;;;-1.90;84.60;;;;;;5073405;28;20199;-68
2021/12/23 00:55:02;;;;;;;0.50;0.50;;;-1.80;84.70;;;;;;5073691;28;20600;-69
2021/12/23 00:57:29;;;;;;;0.40;0.40;;;-1.80;84.60;;;;;;5073717;28;20213;-68
2021/12/23 00:59:57;;;;;;;0.45;0.45;;;-1.80;84.90;;;;;;5073082;28;20562;-69
2021/12/23 01:02:26;;;;;;;0.52;0.52;;;-1.70;85.50;;;;;;5073439;28;20226;-69
2021/12/23 01:04:52;;;;;;;0.88;0.88;;;-1.70;86.10;;;;;;5073234;28;20199;-68
2021/12/23 01:07:18;;;;;;;0.43;0.43;;;-1.60;86.80;;;;;;5076094;28;20252;-69
2021/12/23 01:09:44;;;;;;;0.60;0.60;;;-1.60;87.10;;;;;;5079885;28;20165;-69
2021/12/23 01:12:12;;;;;;;0.53;0.53;;;-1.50;87.10;;;;;;5079975;28;20184;-69
2021/12/23 01:14:52;;;;;;;0.50;0.50;;;-1.50;87.10;;;;;;5079930;28;20252;-68
2021/12/23 01:19:50;;;;;;;0.50;0.50;;;-1.40;88.00;;;;;;5079737;28;20177;-69
2021/12/23 01:22:16;;;;;;;0.40;0.40;;;-1.40;88.80;;;;;;5080010;28;20494;-69
2021/12/23 01:24:41;;;;;;;0.50;0.50;;;-1.30;88.90;;;;;;5079878;28;20204;-69
2021/12/23 01:27:07;;;;;;;0.50;0.50;;;-1.30;88.80;;;;;;5080012;28;20169;-69
2021/12/23 01:29:33;;;;;;;0.50;0.50;;;-1.30;88.90;;;;;;5079734;28;20219;-69
2021/12/23 01:32:02;;;;;;;0.40;0.40;;;-1.30;89.30;;;;;;5079937;28;20168;-69
2021/12/23 01:34:28;;;;;;;0.30;0.30;;;-1.20;89.80;;;;;;5079680;28;20423;-69
2021/12/23 01:36:54;;;;;;;0.50;0.50;;;-1.10;90.10;;;;;;5079788;28;20177;-68
2021/12/23 01:39:19;;;;;;;0.40;0.40;;;-1.00;90.10;;;;;;5079765;28;20197;-69
2021/12/23 01:41:45;;;;;;;0.40;0.40;;;-1.00;90.00;;;;;;5079847;28;20222;-69
2021/12/23 01:44:11;;;;;;;0.40;0.40;;;-0.90;90.10;;;;;;5079608;28;20234;-69
2021/12/23 01:46:37;;;;;;;0.50;0.50;;;-0.80;90.10;;;;;;5080048;28;20211;-69
2021/12/23 01:49:03;;;;;;;0.47;0.47;;;-0.80;90.00;;;;;;5079657;28;20197;-69
2021/12/23 01:51:28;;;;;;;0.40;0.40;;;-0.70;90.10;;;;;;5079683;28;20490;-69
2021/12/23 01:53:54;;;;;;;0.60;0.60;;;-0.80;90.20;;;;;;5079520;28;20276;-69
2021/12/23 01:56:20;;;;;;;0.50;0.50;;;-0.70;90.30;;;;;;5079700;28;20169;-69
2021/12/23 01:58:46;;;;;;;0.40;0.40;;;-0.70;90.30;;;;;;5079418;28;20173;-69
2021/12/23 02:01:12;;;;;;;0.40;0.40;;;-0.70;90.20;;;;;;5079715;28;20407;-69
2021/12/23 02:03:39;;;;;;;0.37;0.37;;;-0.60;90.20;;;;;;5080003;28;20193;-69
2021/12/23 02:06:05;;;;;;;0.40;0.40;;;-0.60;90.10;;;;;;5079584;28;20670;-69
2021/12/23 02:08:35;;;;;;;0.45;0.45;;;-0.60;90.00;;;;;;5079280;28;20170;-69
2021/12/23 02:11:02;;;;;;;0.40;0.40;;;-0.60;89.90;;;;;;5079573;28;20218;-69
2021/12/23 02:13:28;;;;;;;0.40;0.40;;;-0.60;90.10;;;;;;5079308;28;20251;-69
2021/12/23 02:15:53;;;;;;;0.40;0.40;;;-0.60;90.10;;;;;;5079317;28;20170;-69
2021/12/23 02:18:20;;;;;;;0.40;0.40;;;-0.60;90.00;;;;;;5077827;28;20223;-69
2021/12/23 02:20:46;;;;;;;0.40;0.40;;;-0.60;90.00;;;;;;5076146;28;20513;-68
2021/12/23 02:23:11;;;;;;;0.40;0.40;;;-0.50;90.30;;;;;;5076065;28;20202;-69
2021/12/23 02:25:37;;;;;;;0.30;0.30;;;-0.50;90.10;;;;;;5076104;28;20666;-69
2021/12/23 02:28:07;;;;;;;0.40;0.40;;;-0.50;90.10;;;;;;5076058;28;20219;-69
2021/12/23 02:30:38;;;;;;;0.40;0.40;;;-0.50;90.10;;;;;;5076459;28;20169;-69
2021/12/23 02:33:06;;;;;;;0.40;0.40;;;-0.50;90.20;;;;;;5076113;28;20201;-69
2021/12/23 02:35:32;;;;;;;0.40;0.40;;;-0.50;90.30;;;;;;5076008;28;20201;-69
2021/12/23 02:37:57;;;;;;;0.40;0.40;;;-0.40;90.30;;;;;;5075909;28;20517;-69
2021/12/23 02:40:30;;;;;;;0.40;0.40;;;-0.30;90.40;;;;;;5075998;28;20257;-69
2021/12/23 02:43:06;;;;;;;0.30;0.30;;;-0.30;90.60;;;;;;5076229;28;20196;-69
2021/12/23 02:45:32;;;;;;;0.40;0.40;;;-0.20;90.20;;;;;;5075743;28;20193;-68
2021/12/23 02:47:57;;;;;;;0.40;0.40;;;-0.10;90.10;;;;;;5075496;28;20174;-69
2021/12/23 02:50:23;;;;;;;0.40;0.40;;;0.00;89.70;;;;;;5075771;28;20247;-69
2021/12/23 02:52:48;;;;;;;0.40;0.40;;;0.00;89.00;;;;;;5075628;28;20235;-69
2021/12/23 02:55:18;;;;;;;0.30;0.30;;;0.10;88.70;;;;;;5075498;28;20268;-69
2021/12/23 02:57:43;;;;;;;0.40;0.40;;;0.10;88.80;;;;;;5075735;28;20172;-69
2021/12/23 03:00:09;;;;;;;0.40;0.40;;;0.10;89.10;;;;;;5075244;28;20197;-69
2021/12/23 03:02:38;;;;;;;0.30;0.30;;;0.10;89.30;;;;;;5075613;28;20192;-69
2021/12/23 03:05:04;;;;;;;0.40;0.40;;;0.10;89.40;;;;;;5075249;28;20194;-69
2021/12/23 03:07:30;;;;;;;6.28;1.35;;;0.10;89.40;;;;;;5075480;28;20162;-69
2021/12/23 03:09:55;;;;;;;0.40;0.40;;;0.10;89.10;;;;;;5075025;28;20174;-69
2021/12/23 03:12:21;;;;;;;0.40;0.40;;;0.20;88.90;;;;;;5075137;28;20180;-69
2021/12/23 03:14:47;;;;;;;0.30;0.30;;;0.30;88.40;;;;;;5075455;28;20205;-69
2021/12/23 03:17:12;;;;;;;0.30;0.30;;;0.20;88.00;;;;;;5075351;28;20173;-69
2021/12/23 03:19:38;;;;;;;0.40;0.40;;;0.20;88.20;;;;;;5075034;28;20249;-69
2021/12/23 03:22:04;;;;;;;0.30;0.30;;;0.10;88.10;;;;;;5075192;28;20181;-69
2021/12/23 03:24:29;;;;;;;0.40;0.40;;;0.20;88.20;;;;;;5074869;28;20180;-69
2021/12/23 03:26:55;;;;;;;0.40;0.40;;;0.20;87.70;;;;;;5074895;28;20170;-69
2021/12/23 03:29:21;;;;;;;0.30;0.30;;;0.20;87.60;;;;;;5075017;28;20535;-70
2021/12/23 03:31:46;;;;;;;0.37;0.37;;;0.30;87.70;;;;;;5073782;28;20248;-69
2021/12/23 03:34:12;;;;;;;0.40;0.40;;;0.30;87.90;;;;;;5074707;28;20197;-69
2021/12/23 03:36:38;;;;;;;0.40;0.40;;;0.40;88.00;;;;;;5074867;28;20162;-69
2021/12/23 03:39:05;;;;;;;0.50;0.50;;;0.40;87.60;;;;;;5074558;28;20189;-69
2021/12/23 03:41:30;;;;;;;0.30;0.30;;;0.40;87.10;;;;;;5074851;28;20189;-69
2021/12/23 03:43:56;;;;;;;0.40;0.40;;;0.50;86.50;;;;;;5074489;28;20189;-69
2021/12/23 03:46:22;;;;;;;0.40;0.40;;;0.50;86.20;;;;;;5074606;28;20239;-69
2021/12/23 03:48:48;;;;;;;0.30;0.30;;;0.50;86.00;;;;;;5074331;28;20169;-69
2021/12/23 03:51:14;;;;;;;0.30;0.30;;;0.40;85.60;;;;;;5074613;28;20458;-69
2021/12/23 03:53:39;;;;;;;0.40;0.40;;;0.30;86.30;;;;;;5074453;28;20469;-69
2021/12/23 03:56:05;;;;;;;0.40;0.40;;;0.20;87.20;;;;;;5074367;28;20256;-69
2021/12/23 03:58:31;;;;;;;0.30;0.30;;;0.10;87.40;;;;;;5074121;28;20177;-69
2021/12/23 04:00:56;;;;;;;0.40;0.40;;;0.10;87.50;;;;;;5074248;28;20276;-69
2021/12/23 04:03:22;;;;;;;0.40;0.40;;;0.00;87.60;;;;;;5074275;28;20436;-69
2021/12/23 04:05:48;;;;;;;0.30;0.30;;;0.00;88.10;;;;;;5074087;28;20201;-69
2021/12/23 04:08:13;;;;;;;0.30;0.30;;;-0.10;88.60;;;;;;5074170;28;20177;-69
2021/12/23 04:10:39;;;;;;;0.37;0.37;;;-0.10;88.30;;;;;;5074086;28;20539;-69
2021/12/23 04:13:05;;;;;;;0.40;0.40;;;0.00;87.90;;;;;;5073979;28;20245;-69
2021/12/23 04:15:31;;;;;;;0.30;0.30;;;0.00;86.90;;;;;;5074030;28;20260;-69
2021/12/23 04:17:56;;;;;;;0.30;0.30;;;0.10;86.50;;;;;;5073905;28;20169;-69
2021/12/23 04:20:23;;;;;;;0.30;0.30;;;0.10;86.60;;;;;;5074078;28;20408;-69
2021/12/23 04:22:53;;;;;;;0.40;0.40;;;0.00;87.10;;;;;;5073922;28;20196;-69
2021/12/23 04:25:22;;;;;;;0.40;0.40;;;-0.10;87.50;;;;;;5073999;28;20208;-68
2021/12/23 04:27:52;;;;;;;0.40;0.40;;;-0.10;87.70;;;;;;5073886;28;20166;-69
2021/12/23 04:30:18;;;;;;;0.50;0.50;;;-0.20;87.70;;;;;;5074082;28;20528;-69
2021/12/23 04:32:44;;;;;;;0.50;0.50;;;-0.30;87.70;;;;;;5073788;28;20196;-69
2021/12/23 04:35:11;;;;;;;0.40;0.40;;;-0.40;87.90;;;;;;5073645;28;20182;-69
2021/12/23 04:37:37;;;;;;;0.47;0.47;;;-0.50;87.80;;;;;;5074136;28;20441;-69
2021/12/23 04:40:08;;;;;;;0.40;0.40;;;-0.60;87.80;;;;;;5073524;28;20174;-69
2021/12/23 04:42:34;;;;;;;0.40;0.40;;;-0.60;87.90;;;;;;5073211;28;20611;-69
2021/12/23 04:45:00;;;;;;;0.40;0.40;;;-0.60;87.80;;;;;;5073492;28;20239;-69
2021/12/23 04:47:26;;;;;;;0.40;0.40;;;-0.60;87.50;;;;;;5073514;28;20201;-68
2021/12/23 04:49:52;;;;;;;0.50;0.50;;;-0.60;87.30;;;;;;5073324;28;20432;-68
2021/12/23 04:52:17;;;;;;;0.40;0.40;;;-0.70;87.50;;;;;;5073444;28;20249;-69
2021/12/23 04:54:43;;;;;;;0.40;0.40;;;-0.80;87.90;;;;;;5073824;28;20718;-69
2021/12/23 04:57:09;;;;;;;0.30;0.30;;;-0.80;88.10;;;;;;5073567;28;20523;-68
2021/12/23 04:59:35;;;;;;;0.55;0.55;;;-1.00;87.70;;;;;;5073123;28;20611;-69
2021/12/23 05:02:00;;;;;;;0.50;0.50;;;-1.00;87.40;;;;;;5073494;28;20180;-69
2021/12/23 05:04:26;;;;;;;0.40;0.40;;;-1.00;87.70;;;;;;5073140;28;20230;-69
2021/12/23 05:06:52;;;;;;;0.50;0.50;;;-1.00;87.90;;;;;;5073566;28;20257;-69
2021/12/23 05:09:17;;;;;;;0.30;0.30;;;-1.10;87.80;;;;;;5073195;28;20177;-69
2021/12/23 05:11:44;;;;;;;0.30;0.30;;;-1.10;87.70;;;;;;5073426;28;20173;-68
2021/12/23 05:14:10;;;;;;;0.40;0.40;;;-1.10;87.20;;;;;;5073277;28;20555;-69
2021/12/23 05:16:37;;;;;;;0.40;0.40;;;-1.10;86.80;;;;;;5073217;28;20250;-69
2021/12/23 05:19:03;;;;;;;0.50;0.50;;;-1.00;86.30;;;;;;5073123;28;20267;-69
2021/12/23 05:21:29;;;;;;;0.57;0.57;;;-1.00;86.50;;;;;;5073211;28;20584;-69
2021/12/23 05:23:54;;;;;;;0.40;0.40;;;-1.00;85.80;;;;;;5073089;28;20228;-69
2021/12/23 05:26:20;;;;;;;0.40;0.40;;;-1.10;86.20;;;;;;5073201;28;20447;-69
2021/12/23 05:28:46;;;;;;;0.50;0.50;;;-1.10;86.60;;;;;;5073088;28;20215;-69
2021/12/23 05:31:11;;;;;;;0.50;0.50;;;-1.10;86.70;;;;;;5073399;28;20174;-68
2021/12/23 05:33:37;;;;;;;0.50;0.50;;;-1.10;86.40;;;;;;5072945;28;20191;-69
2021/12/23 05:36:03;;;;;;;0.30;0.30;;;-1.00;86.00;;;;;;5073113;28;20566;-69
2021/12/23 05:38:29;;;;;;;0.50;0.50;;;-1.00;85.70;;;;;;5072881;28;20219;-69
2021/12/23 05:40:55;;;;;;;0.30;0.30;;;-1.00;85.60;;;;;;5073093;28;20768;-69
2021/12/23 05:43:21;;;;;;;0.30;0.30;;;-1.00;85.20;;;;;;5073061;28;20197;-69
2021/12/23 05:45:46;;;;;;;0.30;0.30;;;-1.00;85.20;;;;;;5072906;28;20201;-69
2021/12/23 05:48:12;;;;;;;0.40;0.40;;;-1.00;85.40;;;;;;5072723;28;20434;-69
2021/12/23 05:50:38;;;;;;;0.40;0.40;;;-1.00;85.20;;;;;;5072937;28;20646;-69
2021/12/23 05:53:04;;;;;;;0.40;0.40;;;-1.00;85.00;;;;;;5073028;28;20189;-69
2021/12/23 05:55:29;;;;;;;0.30;0.30;;;-1.00;85.00;;;;;;5076146;28;20173;-69
2021/12/23 05:57:55;;;;;;;0.30;0.30;;;-0.90;84.30;;;;;;5076582;28;20427;-69
2021/12/23 06:00:28;;;;;;;0.40;0.40;;;-0.80;84.00;;;;;;5076419;28;20192;-69
2021/12/23 06:02:54;;;;;;;0.40;0.40;;;-0.70;83.90;;;;;;5076938;28;20220;-69
2021/12/23 06:05:21;;;;;;;0.40;0.40;;;-0.70;83.70;;;;;;5076413;28;20204;-69
2021/12/23 06:07:46;;;;;;;0.32;0.32;;;-0.60;83.30;;;;;;5076500;28;20196;-69
2021/12/23 06:10:14;;;;;;;0.30;0.30;;;-0.50;82.40;;;;;;5076363;28;20251;-69
2021/12/23 06:12:41;;;;;;;0.30;0.30;;;-0.40;81.90;;;;;;5076354;28;20544;-69
2021/12/23 06:15:07;;;;;;;0.40;0.40;;;-0.40;81.60;;;;;;5076269;28;20222;-68
2021/12/23 06:17:33;;;;;;;0.30;0.30;;;-0.50;81.80;;;;;;5076453;28;20180;-69
2021/12/23 06:19:58;;;;;;;0.40;0.40;;;-0.50;81.80;;;;;;5076081;28;20174;-69
2021/12/23 06:22:24;;;;;;;0.37;0.37;;;-0.40;81.50;;;;;;5076133;28;20435;-69
2021/12/23 06:24:50;;;;;;;0.30;0.30;;;-0.40;80.40;;;;;;5076128;28;20276;-69
2021/12/23 06:27:17;;;;;;;0.30;0.30;;;-0.40;79.80;;;;;;5076203;28;20400;-69
2021/12/23 06:29:43;;;;;;;0.40;0.40;;;-0.40;79.90;;;;;;5075851;28;20241;-69
2021/12/23 06:32:08;;;;;;;0.40;0.40;;;-0.40;80.40;;;;;;5075868;28;20691;-69
2021/12/23 06:34:34;;;;;;;0.40;0.40;;;-0.40;80.60;;;;;;5075928;28;20481;-69
2021/12/23 06:37:00;;;;;;;0.50;0.50;;;-0.50;80.10;;;;;;5074752;28;20813;-69
2021/12/23 06:39:26;;;;;;;0.40;0.40;;;-0.60;79.70;;;;;;5075864;28;20170;-68
2021/12/23 06:41:52;;;;;;;0.40;0.40;;;-0.50;79.90;;;;;;5076000;28;20174;-69
2021/12/23 06:44:17;;;;;;;0.50;0.50;;;-0.50;79.90;;;;;;5075896;28;20462;-70
2021/12/23 06:46:43;;;;;;;0.40;0.40;;;-0.50;79.20;;;;;;5075674;28;20447;-69
2021/12/23 06:49:09;;;;;;;0.40;0.40;;;-0.50;79.00;;;;;;5075566;28;20283;-69
2021/12/23 06:51:35;;;;;;;0.40;0.40;;;-0.50;78.80;;;;;;5075719;28;20185;-69
2021/12/23 06:54:02;;;;;;;0.40;0.40;;;-0.50;78.80;;;;;;5075664;28;20186;-68
2021/12/23 06:56:27;;;;;;;0.40;0.40;;;-0.50;78.10;;;;;;5075682;28;20193;-68
2021/12/23 06:58:53;;;;;;;0.50;0.50;;;-0.50;78.00;;;;;;5075340;28;20275;-69
2021/12/23 07:01:21;;;;;;;0.40;0.40;;;-0.50;78.00;;;;;;5075974;28;20177;-69
2021/12/23 07:06:30;;;;;;;0.32;0.32;;;-0.30;77.20;;;;;;5075404;28;20215;-69
2021/12/23 07:08:56;;;;;;;0.38;0.38;;;-0.30;75.10;;;;;;5075175;28;20169;-69
2021/12/23 07:11:22;;;;;;;0.40;0.40;;;-0.30;75.40;;;;;;5075447;28;20627;-69
2021/12/23 07:13:48;;;;;;;0.40;0.40;;;-0.20;76.70;;;;;;5075181;28;20420;-69
2021/12/23 07:16:14;;;;;;;0.40;0.40;;;-0.10;77.20;;;;;;5075222;28;20483;-69
2021/12/23 07:18:39;;;;;;;0.50;0.50;;;-0.10;77.80;;;;;;5075123;28;20399;-69
2021/12/23 07:21:05;;;;;;;0.40;0.40;;;-0.10;78.30;;;;;;5075309;28;20253;-69
2021/12/23 07:23:30;;;;;;;0.30;0.30;;;-0.10;78.70;;;;;;5075207;28;20231;-69
2021/12/23 07:25:56;;;;;;;0.40;0.40;;;-0.10;79.30;;;;;;5074872;28;20563;-69
2021/12/23 07:28:22;;;;;;;0.40;0.40;;;-0.10;79.50;;;;;;5074768;28;20169;-69
2021/12/23 07:30:47;;;;;;;0.50;0.50;;;-0.10;80.00;;;;;;5074942;28;20166;-69
2021/12/23 07:33:13;;;;;;;0.40;0.40;;;-0.10;80.20;;;;;;5074870;28;20254;-69
2021/12/23 07:35:40;;;;;;;0.40;0.40;;;0.00;80.80;;;;;;5075009;28;20193;-69
2021/12/23 07:38:06;;;;;;;0.40;0.40;;;0.10;80.90;;;;;;5074711;28;20162;-69
2021/12/23 07:40:32;;;;;;;0.40;0.40;;;0.10;80.90;;;;;;5074831;28;20543;-69
2021/12/23 07:43:09;;;;;;;0.40;0.40;;;0.20;81.00;;;;;;5074530;28;20185;-68
2021/12/23 07:45:36;;;;;;;0.30;0.30;;;0.20;81.10;;;;;;5074550;28;20535;-69
2021/12/23 07:48:02;;;;;;;0.40;0.40;;;0.30;81.60;;;;;;5074459;28;20666;-69
2021/12/23 07:50:27;;;;;;;0.40;0.40;;;0.40;81.50;;;;;;5074656;28;20260;-69
2021/12/23 07:52:53;;;;;;;0.40;0.40;;;0.60;81.30;;;;;;5074541;28;20434;-69
2021/12/23 07:55:21;;;;;;;0.40;0.40;;;0.70;80.40;;;;;;5074339;28;20315;-69
2021/12/23 07:57:46;;;;;;;0.40;0.40;;;0.90;80.20;;;;;;5074309;28;20192;-69
2021/12/23 08:00:13;;;;;;;0.40;0.40;;;1.00;79.20;;;;;;5074069;28;20189;-69
2021/12/23 08:02:39;;;;;;;0.40;0.40;;;1.20;78.80;;;;;;5074143;28;20428;-69
2021/12/23 08:05:05;;;;;;;0.30;0.30;;;1.40;78.30;;;;;;5074139;28;20293;-69
2021/12/23 08:07:31;;;;;;;0.35;0.35;;;1.60;78.00;;;;;;5074425;28;20176;-69
2021/12/23 08:09:56;;;;;;;0.30;0.30;;;1.60;77.40;;;;;;5074410;28;20671;-69
2021/12/23 08:12:22;;;;;;;0.40;0.40;;;1.80;76.80;;;;;;5074014;28;20169;-69
2021/12/23 08:14:47;;;;;;;0.40;0.40;;;2.00;75.80;;;;;;5074153;28;20176;-69
2021/12/23 08:17:13;;;;;;;0.30;0.30;;;2.30;74.70;;;;;;5073559;28;20602;-69
2021/12/23 08:19:39;;;;;;;0.40;0.40;;;2.60;74.80;;;;;;5074065;28;20534;-69
2021/12/23 08:22:06;;;;;;;0.40;0.40;;;3.00;74.10;;;;;;5074062;28;20632;-69
2021/12/23 08:24:31;;;;;;;0.30;0.30;;;3.20;73.30;;;;;;5073872;28;20186;-69
2021/12/23 08:26:57;;;;;;;0.30;0.30;;;3.30;73.20;;;;;;5073750;28;20218;-69
2021/12/23 08:29:24;;;;;;;0.40;0.40;;;3.40;73.00;;;;;;5072460;28;20565;-69
2021/12/23 08:31:53;;;;;;;0.40;0.40;;;3.50;72.90;;;;;;5072494;28;20661;-69
2021/12/23 08:34:24;;;;;;;0.40;0.40;;;3.90;72.80;;;;;;5073687;28;20244;-69
2021/12/23 08:36:51;;;;;;;0.40;0.40;;;4.60;72.10;;;;;;5073737;28;20181;-69
2021/12/23 08:39:18;;;;;;;0.40;0.40;;;5.20;69.90;;;;;;5073740;28;20174;-69
2021/12/23 08:41:44;;;;;;;0.40;0.40;;;5.50;68.00;;;;;;5073654;28;20169;-69
2021/12/23 08:44:10;;;;;;;0.40;0.40;;;5.50;67.00;;;;;;5073510;28;20200;-69
2021/12/23 08:46:35;;;;;;;0.40;0.40;;;5.50;66.10;;;;;;5073617;28;20555;-69
2021/12/23 08:49:02;;;;;;;0.40;0.40;;;5.40;65.70;;;;;;5073553;28;20162;-69
2021/12/23 08:51:27;;;;;;;0.40;0.40;;;5.50;67.10;;;;;;5073658;28;20828;-69
2021/12/23 08:53:53;;;;;;;0.40;0.40;;;5.70;66.00;;;;;;5073513;28;20274;-69
2021/12/23 08:56:19;;;;;;;0.37;0.37;;;6.00;65.00;;;;;;5073780;28;20219;-69
2021/12/23 08:58:44;;;;;;;0.40;0.40;;;6.40;63.50;;;;;;5073206;28;20174;-69
2021/12/23 09:01:11;;;;;;;0.30;0.30;;;6.60;61.40;;;;;;5073630;28;20257;-69
2021/12/23 09:03:37;;;;;;;0.35;0.35;;;6.90;62.50;;;;;;5073476;28;20213;-69
2021/12/23 09:06:04;;;;;;;0.40;0.40;;;6.80;62.70;;;;;;5073272;28;20240;-69
2021/12/23 09:08:30;;;;;;;0.40;0.40;;;6.70;63.00;;;;;;5073370;28;20256;-69
2021/12/23 09:10:58;;;;;;;0.40;0.40;;;6.50;63.60;;;;;;5073356;28;20174;-69
2021/12/23 09:13:25;;;;;;;0.40;0.40;;;6.50;63.80;;;;;;5073324;28;20193;-70
2021/12/23 09:15:51;;;;;;;0.38;0.38;;;6.80;63.70;;;;;;5073281;28;20184;-69
2021/12/23 09:18:19;;;;;;;0.40;0.40;;;7.00;64.40;;;;;;5073241;28;20174;-69
2021/12/23 09:20:45;;;;;;;0.35;0.35;;;7.50;62.90;;;;;;5073392;28;20540;-67
2021/12/23 09:23:10;;;;;;;0.40;0.40;;;8.20;59.30;;;;;;5073255;28;20186;-67
2021/12/23 09:25:37;;;;;;;0.30;0.30;;;9.00;57.60;;;;;;5073045;28;20946;-67
2021/12/23 09:33:17;;;;;;;0.40;0.40;;;9.70;54.30;;;;;;5077834;28;20203;-67
2021/12/23 09:35:43;;;;;;;0.40;0.40;;;9.50;54.10;;;;;;5077321;28;20179;-67
2021/12/23 09:38:09;;;;;;;0.40;0.40;;;9.30;53.30;;;;;;5077118;28;20175;-67
2021/12/23 09:40:36;;;;;;;0.40;0.40;;;9.20;53.80;;;;;;5077112;28;20200;-67
2021/12/23 09:43:04;;;;;;;0.40;0.40;;;9.00;53.80;;;;;;5076938;28;20268;-67
2021/12/23 09:45:31;;;;;;;0.40;0.40;;;9.00;53.70;;;;;;5076803;28;20210;-67
2021/12/23 09:47:58;;;;;;;0.30;0.30;;;8.90;54.10;;;;;;5076645;28;20222;-67
2021/12/23 09:50:28;;;;;;;0.40;0.40;;;8.90;52.50;;;;;;5076983;28;20196;-67
2021/12/23 09:52:54;;;;;;;0.40;0.40;;;8.90;53.90;;;;;;5076842;28;20256;-67
2021/12/23 09:55:25;;;;;;;0.40;0.40;;;8.80;53.40;;;;;;5076751;28;20221;-67
2021/12/23 09:57:53;;;;;;;0.30;0.30;;;8.90;51.60;;;;;;5076892;28;20231;-67
2021/12/23 10:00:22;;;;;;;0.38;0.38;;;9.00;52.00;;;;;;5076529;28;20254;-67
2021/12/23 10:02:48;;;;;;;0.30;0.30;;;9.00;52.70;;;;;;5076714;28;20545;-68
2021/12/23 10:05:20;;;;;;;0.40;0.40;;;9.00;52.10;;;;;;5076445;28;20200;-67
2021/12/23 10:07:47;;;;;;;0.30;0.30;;;9.00;51.20;;;;;;5076576;28;20169;-67
2021/12/23 10:10:23;;;;;;;0.40;0.40;;;9.00;52.60;;;;;;5076428;28;20257;-66
2021/12/23 10:30:15;;;;;;;0.40;0.40;;;8.90;51.50;;;;;;5076155;28;20174;-67
2021/12/23 10:37:20;;;;;;;0.38;0.38;;;9.40;50.60;;;;;;5076083;28;20176;-67
2021/12/23 10:39:51;;;;;;;0.40;0.40;;;9.60;51.70;;;;;;5075087;28;20255;-67
2021/12/23 10:42:20;;;;;;;0.30;0.30;;;9.70;50.90;;;;;;5076026;28;20186;-67
2021/12/23 10:45:02;;;;;;;0.30;0.30;;;9.70;51.80;;;;;;5075908;28;20169;-67
2021/12/23 10:47:50;;;;;;;0.30;0.30;;;9.90;52.50;;;;;;5075988;28;20177;-67
2021/12/23 10:50:48;;;;;;;0.30;0.30;;;9.90;52.70;;;;;;5075773;28;20164;-67
2021/12/23 10:59:07;;;;;;;0.40;0.40;;;9.60;51.20;;;;;;5075314;28;20258;-67
2021/12/23 11:01:36;;;;;;;0.40;0.40;;;9.50;51.80;;;;;;5075743;28;20175;-67
2021/12/23 11:04:07;;;;;;;0.30;0.30;;;9.50;51.20;;;;;;5075459;28;20257;-66
2021/12/23 11:06:41;;;;;;;0.30;0.30;;;9.50;50.80;;;;;;5075501;28;20211;-67
2021/12/23 11:27:26;;;;;;;1.02;1.00;;;9.40;52.80;;;;;;5075610;28;20226;-67
2021/12/23 11:32:10;;;;;;;0.73;0.73;;;9.80;49.30;;;;;;5075184;28;20172;-67
2021/12/23 11:42:29;;;;;;;1.55;0.70;;;9.90;50.10;;;;;;5074708;28;20174;-67
2021/12/23 11:44:55;;;;;;;0.30;0.30;;;9.90;51.60;;;;;;5074767;28;20230;-67
2021/12/23 11:47:24;;;;;;;0.30;0.30;;;9.80;50.20;;;;;;5074839;28;20174;-67
2021/12/23 11:49:49;;;;;;;0.30;0.30;;;9.90;50.50;;;;;;5074311;28;20485;-67
2021/12/23 11:52:16;;;;;;;0.40;0.40;;;9.90;49.50;;;;;;5073582;28;20195;-67
2021/12/23 11:54:45;;;;;;;0.40;0.40;;;9.90;50.10;;;;;;5074381;28;20461;-67
2021/12/23 11:57:11;;;;;;;0.30;0.30;;;10.00;48.70;;;;;;5074403;28;20527;-67
2021/12/23 11:59:40;;;;;;;0.40;0.40;;;10.00;50.20;;;;;;5074092;28;20602;-67
2021/12/23 12:02:18;;;;;;;0.30;0.30;;;9.80;51.50;;;;;;5074513;28;20169;-67
2021/12/23 12:04:44;;;;;;;0.30;0.30;;;9.70;50.90;;;;;;5074130;28;20173;-67
2021/12/23 12:07:18;;;;;;;0.30;0.30;;;9.70;50.20;;;;;;5074344;28;20223;-67
2021/12/23 12:10:08;;;;;;;0.30;0.30;;;9.70;51.00;;;;;;5074084;28;20539;-67
2021/12/23 12:12:54;;;;;;;0.50;0.50;;;9.60;50.10;;;;;;5074224;28;20199;-67
2021/12/23 12:15:34;;;;;;;0.40;0.40;;;9.70;49.50;;;;;;5074077;28;20188;-67
2021/12/23 12:18:04;;;;;;;0.30;0.30;;;9.90;49.90;;;;;;5074026;28;20711;-67
2021/12/23 12:20:37;;;;;;;0.30;0.30;;;9.90;51.80;;;;;;5074111;28;20547;-67
2021/12/23 12:23:10;;;;;;;0.30;0.30;;;10.10;48.70;;;;;;5073989;28;20197;-67
2021/12/23 12:25:41;;;;;;;0.88;0.88;;;10.20;49.90;;;;;;5073859;28;20235;-67
2021/12/23 12:28:07;;;;;;;0.30;0.30;;;10.30;49.60;;;;;;5073777;28;20173;-67
2021/12/23 12:30:58;;;;;;;0.40;0.40;;;10.20;50.60;;;;;;5074007;28;20238;-67
2021/12/23 12:33:23;;;;;;;0.30;0.30;;;10.20;48.60;;;;;;5074061;28;20193;-67
2021/12/23 12:36:01;;;;;;;0.30;0.30;;;10.30;47.50;;;;;;5073818;28;20276;-67
2021/12/23 12:38:29;;;;;;;0.50;0.50;;;10.50;48.00;;;;;;5073665;28;20575;-66
2021/12/23 12:41:16;;;;;;;0.30;0.30;;;10.50;47.60;;;;;;5073844;28;20173;-67
2021/12/23 12:43:46;;;;;;;0.40;0.40;;;10.40;47.90;;;;;;5073785;28;20200;-67
2021/12/23 12:46:15;;;;;;;0.30;0.30;;;10.30;50.00;;;;;;5073778;28;20197;-67
2021/12/23 12:48:57;;;;;;;0.43;0.43;;;10.10;51.10;;;;;;5073461;28;20169;-67
2021/12/23 12:51:26;;;;;;;0.40;0.40;;;9.90;51.40;;;;;;5073767;28;20677;-67
2021/12/23 12:53:55;;;;;;;0.38;0.38;;;9.90;51.20;;;;;;5073416;28;20185;-67
2021/12/23 12:56:26;;;;;;;0.30;0.30;;;9.80;51.60;;;;;;5073734;28;20172;-67
2021/12/23 12:58:53;;;;;;;0.40;0.40;;;9.70;52.20;;;;;;5073192;28;20281;-67
2021/12/23 13:01:50;;;;;;;0.40;0.40;;;9.60;51.50;;;;;;5073639;28;20662;-67
2021/12/23 13:04:22;;;;;;;0.30;0.30;;;9.60;50.60;;;;;;5072710;28;20720;-67
2021/12/23 13:06:48;;;;;;;0.30;0.30;;;9.60;50.40;;;;;;5073341;28;20202;-67
2021/12/23 13:09:17;;;;;;;0.30;0.30;;;9.50;51.00;;;;;;5073208;28;20213;-67
2021/12/23 13:11:44;;;;;;;0.32;0.32;;;9.40;53.20;;;;;;5073513;28;20175;-67
2021/12/23 13:14:15;;;;;;;0.50;0.50;;;9.30;52.70;;;;;;5073696;28;20238;-67
2021/12/23 13:16:57;;;;;;;0.30;0.30;;;9.30;52.50;;;;;;5073416;28;20164;-67
2021/12/23 13:19:34;;;;;;;0.70;0.70;;;9.30;53.50;;;;;;5073255;28;20263;-67
2021/12/23 13:22:04;;;;;;;0.30;0.30;;;9.20;52.70;;;;;;5073559;28;20172;-67
2021/12/23 13:24:31;;;;;;;0.30;0.30;;;9.20;53.60;;;;;;5073345;28;20195;-67
2021/12/23 13:27:00;;;;;;;0.40;0.40;;;9.20;53.50;;;;;;5073132;28;20198;-67
2021/12/23 13:29:29;;;;;;;0.30;0.30;;;9.20;54.10;;;;;;5073048;28;20168;-67
2021/12/23 13:31:57;;;;;;;0.40;0.40;;;9.30;55.30;;;;;;5073133;28;20634;-67
2021/12/23 13:34:25;;;;;;;0.30;0.30;;;9.30;53.80;;;;;;5073061;28;20208;-67
2021/12/23 13:36:54;;;;;;;0.30;0.30;;;9.40;53.20;;;;;;5073215;28;20172;-67
2021/12/23 13:39:26;;;;;;;0.30;0.30;;;9.40;54.00;;;;;;5072797;28;20179;-67
2021/12/23 13:41:54;;;;;;;0.30;0.30;;;9.40;54.30;;;;;;5073093;28;20589;-67
2021/12/23 13:44:32;;;;;;;0.40;0.40;;;9.20;54.90;;;;;;5072897;28;20198;-67
2021/12/23 13:47:08;;;;;;;0.40;0.40;;;9.20;55.80;;;;;;5073105;28;20195;-67
2021/12/23 13:49:35;;;;;;;0.30;0.30;;;9.10;55.10;;;;;;5072836;28;20180;-67
2021/12/23 13:52:05;;;;;;;0.40;0.40;;;9.00;55.80;;;;;;5072930;28;20172;-67
2021/12/23 13:54:39;;;;;;;0.30;0.30;;;8.80;56.40;;;;;;5072985;28;20350;-68
2021/12/23 13:57:20;;;;;;;0.30;0.30;;;8.80;57.10;;;;;;5073013;28;20204;-67
2021/12/23 13:59:46;;;;;;;0.30;0.30;;;8.80;56.10;;;;;;5072437;28;20194;-67
2021/12/23 14:02:15;;;;;;;0.30;0.30;;;8.90;57.50;;;;;;5072735;28;20172;-67
2021/12/23 14:04:46;;;;;;;0.30;0.30;;;8.90;57.40;;;;;;5072972;28;20199;-67
2021/12/23 14:07:14;;;;;;;0.40;0.40;;;9.00;57.30;;;;;;5072910;28;20192;-67
2021/12/23 14:09:47;;;;;;;0.40;0.40;;;9.00;57.40;;;;;;5072637;28;20180;-67
2021/12/23 14:12:15;;;;;;;0.38;0.38;;;8.90;58.00;;;;;;5072809;28;20536;-67